createdAt,value
2018-07-27T00:02:10.425Z,11.09
2018-07-27T00:08:05.430Z,11.95
2018-07-27T00:14:00.455Z,10.77
2018-07-27T00:19:55.445Z,10.22
2018-07-27T00:25:50.453Z,12.71
2018-07-27T00:31:45.482Z,10.18
2018-07-27T00:37:40.506Z,14.02
2018-07-27T00:43:35.451Z,9.37
2018-07-27T00:49:30.515Z,9.58
2018-07-27T00:55:25.467Z,10.49
2018-07-27T01:01:20.545Z,11.97
2018-07-27T01:07:15.471Z,9.59
2018-07-27T01:13:10.503Z,8.75
2018-07-27T01:19:05.599Z,13.64
2018-07-27T01:25:00.479Z,11.72
2018-07-27T01:30:55.501Z,10.98
2018-07-27T01:36:50.528Z,11.91
2018-07-27T01:42:45.535Z,9.28
2018-07-27T01:48:40.558Z,10.05
2018-07-27T01:54:35.640Z,9.36
2018-07-27T02:00:30.551Z,13.63
2018-07-27T02:06:25.541Z,13.89
2018-07-27T02:12:20.524Z,9.63
2018-07-27T02:18:15.517Z,10.41
2018-07-27T02:24:10.525Z,10.07
2018-07-27T02:30:05.593Z,11.37
2018-07-27T02:36:00.546Z,10.13
2018-07-27T02:41:55.597Z,10.5
2018-07-27T02:47:50.556Z,14.35
2018-07-27T02:53:45.577Z,9.21
2018-07-27T02:59:40.554Z,10.24
2018-07-27T03:05:35.560Z,16.32
2018-07-27T03:11:30.588Z,9.54
2018-07-27T03:17:25.620Z,10.98
2018-07-27T03:23:20.663Z,10.44
2018-07-27T03:29:15.603Z,9.73
2018-07-27T03:35:10.578Z,13.75
2018-07-27T03:41:05.626Z,10.82
2018-07-27T03:47:00.628Z,15.75
2018-07-27T03:52:55.587Z,11.28
2018-07-27T03:58:50.623Z,14.12
2018-07-27T04:04:45.622Z,11.66
2018-07-27T04:10:40.601Z,14.9
2018-07-27T04:16:35.726Z,10.37
2018-07-27T04:22:30.693Z,11.45
2018-07-27T04:28:25.608Z,10.84
2018-07-27T04:34:20.648Z,10.7
2018-07-27T04:40:15.685Z,10.23
2018-07-27T04:46:10.634Z,16.72
2018-07-27T04:52:05.669Z,11.96
2018-07-27T04:58:00.625Z,10.97
2018-07-27T05:03:55.651Z,10.57
2018-07-27T05:09:50.652Z,9.95
2018-07-27T05:15:45.680Z,13.03
2018-07-27T05:21:40.669Z,11.64
2018-07-27T05:27:35.647Z,17.92
2018-07-27T05:33:30.673Z,19.29
2018-07-27T05:39:25.707Z,16.86
2018-07-27T05:45:20.669Z,16.97
2018-07-27T05:51:15.685Z,16.31
2018-07-27T05:57:10.732Z,14.48
2018-07-27T06:03:05.681Z,17.3
2018-07-27T06:09:00.703Z,14.52
2018-07-27T06:14:55.761Z,15.45
2018-07-27T06:20:50.741Z,15.54
2018-07-27T06:26:45.693Z,19.27
2018-07-27T06:32:40.724Z,13.13
2018-07-27T06:38:35.726Z,12.02
2018-07-27T06:44:30.756Z,14
2018-07-27T06:50:25.702Z,11.4
2018-07-27T06:56:20.723Z,10.9
2018-07-27T07:02:15.718Z,11.35
2018-07-27T07:08:10.732Z,19.89
2018-07-27T07:14:05.746Z,13.38
2018-07-27T07:20:00.741Z,20.26
2018-07-27T07:25:56.242Z,11.33
2018-07-27T07:31:50.749Z,10.58
2018-07-27T07:37:45.847Z,12.06
2018-07-27T07:43:40.803Z,14.01
2018-07-27T07:49:35.790Z,10.88
2018-07-27T07:55:30.808Z,50.07
2018-07-27T08:01:25.797Z,11.14
2018-07-27T08:07:20.789Z,10.09
2018-07-27T08:13:15.781Z,9.67
2018-07-27T08:19:10.815Z,8.99
2018-07-27T08:25:05.807Z,8.75
2018-07-27T08:31:00.812Z,7.87
2018-07-27T08:36:55.806Z,10
2018-07-27T08:42:50.881Z,8.67
2018-07-27T08:48:45.820Z,10.48
2018-07-27T08:54:40.843Z,10.17
2018-07-27T09:00:35.907Z,10.53
2018-07-27T09:06:30.826Z,11.69
2018-07-27T09:12:25.855Z,11.73
2018-07-27T09:18:20.915Z,11.72
2018-07-27T09:24:15.890Z,8.8
2018-07-27T09:30:10.897Z,7.98
2018-07-27T09:36:05.883Z,8.94
2018-07-27T09:42:00.873Z,7.13
2018-07-27T09:47:55.914Z,10.3
2018-07-27T09:53:50.957Z,9.32
2018-07-27T09:59:45.994Z,8.02
2018-07-27T10:05:40.887Z,5.19
2018-07-27T10:11:35.895Z,7.88
2018-07-27T10:17:30.900Z,4.73
2018-07-27T10:23:26.015Z,4.56
2018-07-27T10:29:20.926Z,6.64
2018-07-27T10:35:15.921Z,4.71
2018-07-27T10:41:10.926Z,3.98
2018-07-27T10:47:05.955Z,4.01
2018-07-27T10:53:00.946Z,4.25
2018-07-27T10:58:55.939Z,3.75
2018-07-27T11:04:50.929Z,4.98
2018-07-27T11:10:45.988Z,2.78
2018-07-27T11:16:40.986Z,3.2
2018-07-27T11:22:35.975Z,3.29
2018-07-27T11:28:30.979Z,2.71
2018-07-27T11:34:26.064Z,2.97
2018-07-27T11:40:21.004Z,3.93
2018-07-27T11:46:15.992Z,2.36
2018-07-27T11:52:10.981Z,2.39
2018-07-27T11:58:05.984Z,2.12
2018-07-27T12:04:01.003Z,1.97
2018-07-27T12:09:56.105Z,1.34
2018-07-27T12:15:51.037Z,1.49
2018-07-27T12:21:46.302Z,1.08
2018-07-27T12:27:41.008Z,1.07
2018-07-27T12:33:36.083Z,1.15
2018-07-27T12:39:31.075Z,1.37
2018-07-27T12:45:26.066Z,4.44
2018-07-27T12:51:21.156Z,1.28
2018-07-27T12:57:16.047Z,1.03
2018-07-27T13:03:11.074Z,1.58
2018-07-27T13:09:06.080Z,3.06
2018-07-27T13:15:01.123Z,2.66
2018-07-27T13:20:56.097Z,2.36
2018-07-27T13:26:51.095Z,1.97
2018-07-27T13:32:46.125Z,2.02
2018-07-27T13:38:41.111Z,1.99
2018-07-27T13:44:36.092Z,2.23
2018-07-27T13:50:31.187Z,2.32
2018-07-27T13:56:26.179Z,2.42
2018-07-27T14:02:21.102Z,2.51
2018-07-27T14:08:16.103Z,2.55
2018-07-27T14:14:11.168Z,2.44
2018-07-27T14:20:06.137Z,2.36
2018-07-27T14:26:01.140Z,2.63
2018-07-27T14:31:56.130Z,2.25
2018-07-27T14:37:51.144Z,2.48
2018-07-27T14:43:46.137Z,2.79
2018-07-27T14:49:41.249Z,3.22
2018-07-27T14:55:36.194Z,2.83
2018-07-27T15:01:31.205Z,3.03
2018-07-27T15:07:26.208Z,3.31
2018-07-27T15:13:21.224Z,6.34
2018-07-27T15:19:16.223Z,4.05
2018-07-27T15:25:11.177Z,3.88
2018-07-27T15:31:06.260Z,4.74
2018-07-27T15:37:01.232Z,4.44
2018-07-27T15:42:56.244Z,4.65
2018-07-27T15:48:51.206Z,5.08
2018-07-27T15:54:46.275Z,4.88
2018-07-27T16:00:41.255Z,5.08
2018-07-27T16:06:36.335Z,5.72
2018-07-27T16:12:31.237Z,5.5
2018-07-27T16:18:26.281Z,5.53
2018-07-27T16:24:21.257Z,8.69
2018-07-27T16:30:16.258Z,5.67
2018-07-27T16:36:11.392Z,6.26
2018-07-27T16:42:06.289Z,5.96
2018-07-27T16:48:01.257Z,8.15
2018-07-27T16:53:56.288Z,6.2
2018-07-27T16:59:51.321Z,11.13
2018-07-27T17:05:46.279Z,6.79
2018-07-27T17:11:41.266Z,6.37
2018-07-27T17:17:36.297Z,5.34
2018-07-27T17:23:31.293Z,5.8
2018-07-27T17:29:26.344Z,11.79
2018-07-27T17:35:21.364Z,6.37
2018-07-27T17:41:16.334Z,6.28
2018-07-27T17:47:11.316Z,8.32
2018-07-27T17:53:06.371Z,6.84
2018-07-27T17:59:01.362Z,6.58
2018-07-27T18:04:56.333Z,6.75
2018-07-27T18:10:51.389Z,8.2
2018-07-27T18:16:46.405Z,7.46
2018-07-27T18:22:41.373Z,10.5
2018-07-27T18:28:36.396Z,7.35
2018-07-27T18:34:31.380Z,7.19
2018-07-27T18:40:26.407Z,6.77
2018-07-27T18:46:21.416Z,6.44
2018-07-27T18:52:16.383Z,7.99
2018-07-27T18:58:11.431Z,10.51
2018-07-27T19:04:06.455Z,7.01
2018-07-27T19:10:01.422Z,8.26
2018-07-27T19:15:56.435Z,7.5
2018-07-27T19:21:51.391Z,9.47
2018-07-27T19:27:46.419Z,6.95
2018-07-27T19:33:41.412Z,7.2
2018-07-27T19:39:36.459Z,8.34
2018-07-27T19:45:31.404Z,7.99
2018-07-27T19:51:26.412Z,8.53
2018-07-27T19:57:21.431Z,7.72
2018-07-27T20:03:16.473Z,8.68
2018-07-27T20:09:11.439Z,9.09
2018-07-27T20:15:06.544Z,8.11
2018-07-27T20:21:01.443Z,9.3
2018-07-27T20:26:56.536Z,8.77
2018-07-27T20:32:51.455Z,10.4
2018-07-27T20:38:46.457Z,8.64
2018-07-27T20:44:41.548Z,9.22
2018-07-27T20:50:36.552Z,9.8
2018-07-27T20:56:31.501Z,9.51
2018-07-27T21:02:26.487Z,9.67
2018-07-27T21:08:21.553Z,9.65
2018-07-27T21:14:16.540Z,13.13
2018-07-27T21:20:11.552Z,9.97
2018-07-27T21:26:06.549Z,11.01
2018-07-27T21:32:01.536Z,9.71
2018-07-27T21:37:56.531Z,11.3
2018-07-27T21:43:51.583Z,10.69
2018-07-27T21:49:46.511Z,10.82
2018-07-27T21:55:41.572Z,11.19
2018-07-27T22:01:36.517Z,11.71
2018-07-27T22:07:31.562Z,10.26
2018-07-27T22:13:26.579Z,12.61
2018-07-27T22:19:21.552Z,11.84
2018-07-27T22:25:16.556Z,11.41
2018-07-27T22:31:11.560Z,11.17
2018-07-27T22:37:06.599Z,11.7
2018-07-27T22:43:01.606Z,12.67
2018-07-27T22:48:56.594Z,11.73
2018-07-27T22:54:51.676Z,13.91
2018-07-27T23:00:46.581Z,12
2018-07-27T23:06:41.615Z,14.57
2018-07-27T23:12:36.598Z,13.52
2018-07-27T23:18:31.664Z,12.5
2018-07-27T23:24:26.600Z,13.33
2018-07-27T23:30:21.644Z,12.8
2018-07-27T23:36:16.616Z,13.72
2018-07-27T23:42:11.644Z,13.23
2018-07-27T23:48:06.702Z,18.92
2018-07-27T23:54:01.633Z,13.07
2018-07-27T23:59:56.729Z,19.57
